createdAt,value
2019-01-13T00:00:11.727Z,6.60
2019-01-13T00:02:39.245Z,6.60
2019-01-13T00:05:07.237Z,6.60
2019-01-13T00:07:35.949Z,6.50
2019-01-13T00:10:04.524Z,6.60
2019-01-13T00:12:35.516Z,6.60
2019-01-13T00:15:01.460Z,6.50
2019-01-13T00:17:28.438Z,6.40
2019-01-13T00:19:56.215Z,6.40
2019-01-13T00:22:24.168Z,6.50
2019-01-13T00:24:51.909Z,6.40
2019-01-13T00:27:19.261Z,6.30
2019-01-13T00:29:46.572Z,6.30
2019-01-13T00:32:13.971Z,6.20
2019-01-13T00:34:41.287Z,6.10
2019-01-13T00:37:08.626Z,6.10
2019-01-13T00:39:36.889Z,6.10
2019-01-13T00:42:04.217Z,6.10
2019-01-13T00:44:31.496Z,6.10
2019-01-13T00:46:59.132Z,6.10
2019-01-13T00:49:26.103Z,6.10
2019-01-13T00:51:55.853Z,6.10
2019-01-13T00:54:23.329Z,6.10
2019-01-13T00:56:51.458Z,6.20
2019-01-13T00:59:18.640Z,6.20
2019-01-13T01:01:47.640Z,6.20
2019-01-13T01:04:15.348Z,6.10
2019-01-13T01:06:42.961Z,6.10
2019-01-13T01:09:11.264Z,6.20
2019-01-13T01:11:38.972Z,6.30
2019-01-13T01:14:06.763Z,6.40
2019-01-13T01:16:53.333Z,6.40
2019-01-13T01:19:21.911Z,6.30
2019-01-13T01:21:51.303Z,6.30
2019-01-13T01:24:18.641Z,6.30
2019-01-13T01:26:46.204Z,6.50
2019-01-13T01:29:13.601Z,6.60
2019-01-13T01:31:41.145Z,6.50
2019-01-13T01:34:08.510Z,6.30
2019-01-13T01:36:36.081Z,6.20
2019-01-13T01:39:06.344Z,6.10
2019-01-13T01:41:33.688Z,6.10
2019-01-13T01:44:00.812Z,6.30
2019-01-13T01:46:28.451Z,6.30
2019-01-13T01:48:56.416Z,6.40
2019-01-13T01:51:23.588Z,6.40
2019-01-13T01:53:51.237Z,6.40
2019-01-13T01:56:18.788Z,6.40
2019-01-13T01:58:46.763Z,6.40
2019-01-13T02:01:14.653Z,6.30
2019-01-13T02:03:42.743Z,6.10
2019-01-13T02:06:10.325Z,6.10
2019-01-13T02:08:37.259Z,6.00
2019-01-13T02:11:05.680Z,6.00
2019-01-13T02:13:32.684Z,6.10
2019-01-13T02:15:59.825Z,6.00
2019-01-13T02:18:27.240Z,5.90
2019-01-13T02:20:55.116Z,5.90
2019-01-13T02:23:22.973Z,5.90
2019-01-13T02:25:50.648Z,5.90
2019-01-13T02:28:18.091Z,5.90
2019-01-13T02:30:49.242Z,5.90
2019-01-13T02:33:14.901Z,5.90
2019-01-13T02:35:42.093Z,5.90
2019-01-13T02:38:09.222Z,5.90
2019-01-13T02:40:36.260Z,5.80
2019-01-13T02:43:03.765Z,5.90
2019-01-13T02:45:30.951Z,5.90
2019-01-13T02:47:58.549Z,5.90
2019-01-13T02:50:25.608Z,5.90
2019-01-13T02:52:52.977Z,5.90
2019-01-13T02:55:20.636Z,5.90
2019-01-13T02:57:48.144Z,5.80
2019-01-13T03:00:24.053Z,5.90
2019-01-13T03:02:51.412Z,5.90
2019-01-13T03:05:19.053Z,5.80
2019-01-13T03:07:46.778Z,5.70
2019-01-13T03:10:17.165Z,5.80
2019-01-13T03:12:44.617Z,5.80
2019-01-13T03:15:19.669Z,5.80
2019-01-13T03:17:42.736Z,5.90
2019-01-13T03:20:10.145Z,6.00
2019-01-13T03:22:38.041Z,6.10
2019-01-13T03:25:08.025Z,6.10
2019-01-13T03:27:35.529Z,6.10
2019-01-13T03:30:04.118Z,6.20
2019-01-13T03:32:33.935Z,6.20
2019-01-13T03:35:01.245Z,6.20
2019-01-13T03:37:28.713Z,6.20
2019-01-13T03:39:56.001Z,6.20
2019-01-13T03:42:23.340Z,6.30
2019-01-13T03:44:50.908Z,6.30
2019-01-13T03:47:18.566Z,6.30
2019-01-13T03:49:45.706Z,6.20
2019-01-13T03:52:15.276Z,6.20
2019-01-13T03:54:42.738Z,6.10
2019-01-13T03:57:10.462Z,6.10
2019-01-13T03:59:38.128Z,6.20
2019-01-13T04:02:05.382Z,6.20
2019-01-13T04:04:33.412Z,6.30
2019-01-13T04:07:00.918Z,6.40
2019-01-13T04:09:28.449Z,6.40
2019-01-13T04:11:55.747Z,6.50
2019-01-13T04:14:22.745Z,6.50
2019-01-13T04:16:50.391Z,6.40
2019-01-13T04:19:18.249Z,6.50
2019-01-13T04:21:46.336Z,6.50
2019-01-13T04:24:15.913Z,6.40
2019-01-13T04:26:43.700Z,6.40
2019-01-13T04:29:11.502Z,6.40
2019-01-13T04:31:38.978Z,6.40
2019-01-13T04:34:06.184Z,6.50
2019-01-13T04:36:33.845Z,6.50
2019-01-13T04:39:03.080Z,6.50
2019-01-13T04:41:32.282Z,6.50
2019-01-13T04:43:59.956Z,6.50
2019-01-13T04:46:27.206Z,6.50
2019-01-13T04:48:54.871Z,6.50
2019-01-13T04:51:22.969Z,6.50
2019-01-13T04:53:50.202Z,6.60
2019-01-13T04:56:17.828Z,6.60
2019-01-13T04:58:45.107Z,6.70
2019-01-13T05:01:12.170Z,6.60
2019-01-13T05:03:39.544Z,6.70
2019-01-13T05:06:06.885Z,6.70
2019-01-13T05:08:34.544Z,6.80
2019-01-13T05:11:02.017Z,6.80
2019-01-13T05:13:29.509Z,6.90
2019-01-13T05:15:57.466Z,6.90
2019-01-13T05:18:25.320Z,7.10
2019-01-13T05:20:52.405Z,7.10
2019-01-13T05:23:21.591Z,7.10
2019-01-13T05:25:50.678Z,7.10
2019-01-13T05:28:17.988Z,7.10
2019-01-13T05:30:45.383Z,7.10
2019-01-13T05:33:13.134Z,7.20
2019-01-13T05:35:40.810Z,7.10
2019-01-13T05:38:07.911Z,7.00
2019-01-13T05:40:34.873Z,7.00
2019-01-13T05:43:01.920Z,7.00
2019-01-13T05:45:29.422Z,6.90
2019-01-13T05:47:56.767Z,7.00
2019-01-13T05:50:23.921Z,7.00
2019-01-13T05:52:52.960Z,7.00
2019-01-13T05:55:20.673Z,7.10
2019-01-13T05:57:49.881Z,7.10
2019-01-13T06:00:19.499Z,7.10
2019-01-13T06:02:47.338Z,7.10
2019-01-13T06:05:16.692Z,7.10
2019-01-13T06:07:44.111Z,7.10
2019-01-13T06:10:12.527Z,7.10
2019-01-13T06:12:40.228Z,7.10
2019-01-13T06:15:09.857Z,7.20
2019-01-13T06:17:37.517Z,7.20
2019-01-13T06:20:08.260Z,7.20
2019-01-13T06:22:35.217Z,7.20
2019-01-13T06:25:02.409Z,7.10
2019-01-13T06:30:15.826Z,7.20
2019-01-13T06:32:44.896Z,7.20
2019-01-13T06:35:12.240Z,7.20
2019-01-13T06:37:39.588Z,7.20
2019-01-13T06:40:09.727Z,7.20
2019-01-13T06:42:37.094Z,7.20
2019-01-13T06:45:06.872Z,7.30
2019-01-13T06:47:34.277Z,7.20
2019-01-13T06:50:01.768Z,7.20
2019-01-13T06:52:29.580Z,7.30
2019-01-13T06:54:57.670Z,7.20
2019-01-13T06:57:24.836Z,7.20
2019-01-13T06:59:51.800Z,7.20
2019-01-13T07:02:19.365Z,7.20
2019-01-13T07:04:47.401Z,7.20
2019-01-13T07:07:14.428Z,7.20
2019-01-13T07:09:41.992Z,7.30
2019-01-13T07:12:09.326Z,7.30
2019-01-13T07:14:36.952Z,7.50
2019-01-13T07:17:04.465Z,7.50
2019-01-13T07:19:31.608Z,7.40
2019-01-13T07:21:58.803Z,7.50
2019-01-13T07:24:26.186Z,7.50
2019-01-13T07:26:53.521Z,7.50
2019-01-13T07:29:21.035Z,7.50
2019-01-13T07:31:48.284Z,7.50
2019-01-13T07:34:16.164Z,7.50
2019-01-13T07:36:43.289Z,7.50
2019-01-13T07:39:10.480Z,7.50
2019-01-13T07:41:37.687Z,7.50
2019-01-13T07:44:05.161Z,7.60
2019-01-13T07:46:33.062Z,7.60
2019-01-13T07:49:00.116Z,7.60
2019-01-13T07:51:27.621Z,7.60
2019-01-13T07:53:54.668Z,7.60
2019-01-13T07:56:22.024Z,7.60
2019-01-13T07:58:50.110Z,7.50
2019-01-13T08:01:17.462Z,7.50
2019-01-13T08:03:44.728Z,7.60
2019-01-13T08:06:11.748Z,7.60
2019-01-13T08:08:38.856Z,7.60
2019-01-13T08:11:06.649Z,7.60
2019-01-13T08:13:34.959Z,7.60
2019-01-13T08:16:02.177Z,7.70
2019-01-13T08:18:29.601Z,7.70
2019-01-13T08:20:57.120Z,7.70
2019-01-13T08:23:24.281Z,7.70
2019-01-13T08:25:51.632Z,7.50
2019-01-13T08:28:18.900Z,7.60
2019-01-13T08:30:46.272Z,7.60
2019-01-13T08:33:13.999Z,7.60
2019-01-13T08:35:41.506Z,7.60
2019-01-13T08:38:09.454Z,7.50
2019-01-13T08:40:37.308Z,7.50
2019-01-13T08:43:04.759Z,7.40
2019-01-13T08:45:32.113Z,7.40
2019-01-13T08:47:59.594Z,7.40
2019-01-13T08:50:27.792Z,7.30
2019-01-13T08:52:55.813Z,7.30
2019-01-13T08:55:25.242Z,7.40
2019-01-13T08:57:53.005Z,7.40
2019-01-13T09:00:28.813Z,7.50
2019-01-13T09:02:56.876Z,7.60
2019-01-13T09:05:24.880Z,7.60
2019-01-13T09:07:52.573Z,7.60
2019-01-13T09:10:20.400Z,7.50
2019-01-13T09:12:48.828Z,7.40
2019-01-13T09:15:18.074Z,7.40
2019-01-13T09:17:45.682Z,7.40
2019-01-13T09:20:15.594Z,7.40
2019-01-13T09:22:43.328Z,7.30
2019-01-13T09:25:11.467Z,7.30
2019-01-13T09:27:39.036Z,7.30
2019-01-13T09:30:10.371Z,7.30
2019-01-13T09:32:39.490Z,7.30
2019-01-13T09:35:07.269Z,7.30
2019-01-13T09:37:34.764Z,7.30
2019-01-13T09:40:02.184Z,7.30
2019-01-13T09:42:30.249Z,7.30
2019-01-13T09:44:57.636Z,7.30
2019-01-13T09:47:25.009Z,7.40
2019-01-13T09:49:52.380Z,7.40
2019-01-13T09:52:20.100Z,7.40
2019-01-13T09:54:47.241Z,7.50
2019-01-13T09:57:14.900Z,7.50
2019-01-13T09:59:42.193Z,7.70
2019-01-13T10:02:09.266Z,7.80
2019-01-13T10:04:36.561Z,8.00
2019-01-13T10:07:04.232Z,8.20
2019-01-13T10:09:31.381Z,8.20
2019-01-13T10:11:58.621Z,8.30
2019-01-13T10:14:26.252Z,8.30
2019-01-13T10:16:53.599Z,8.20
2019-01-13T10:19:20.845Z,8.20
2019-01-13T10:21:48.249Z,8.20
2019-01-13T10:24:15.252Z,8.20
2019-01-13T10:26:42.822Z,8.20
2019-01-13T10:29:09.876Z,8.20
2019-01-13T10:31:37.298Z,8.20
2019-01-13T10:34:05.185Z,8.20
2019-01-13T10:36:32.961Z,8.10
2019-01-13T10:39:00.472Z,8.20
2019-01-13T10:41:27.973Z,8.30
2019-01-13T10:43:55.531Z,8.20
2019-01-13T10:46:23.132Z,8.10
2019-01-13T10:48:52.361Z,8.30
2019-01-13T10:51:20.055Z,8.30
2019-01-13T10:53:47.164Z,8.30
2019-01-13T10:56:14.973Z,8.40
2019-01-13T10:58:42.678Z,8.50
2019-01-13T11:01:10.212Z,8.40
2019-01-13T11:03:37.605Z,8.40
2019-01-13T11:06:04.803Z,8.40
2019-01-13T11:08:32.501Z,8.50
2019-01-13T11:11:00.257Z,8.40
2019-01-13T11:13:27.736Z,8.40
2019-01-13T11:15:55.301Z,8.30
2019-01-13T11:18:22.872Z,8.30
2019-01-13T11:20:50.296Z,8.40
2019-01-13T11:23:18.276Z,8.50
2019-01-13T11:25:45.680Z,8.50
2019-01-13T11:28:14.173Z,8.40
2019-01-13T11:30:41.569Z,8.50
2019-01-13T11:33:09.572Z,8.50
2019-01-13T11:35:37.495Z,8.50
2019-01-13T11:38:04.796Z,8.50
2019-01-13T11:40:33.056Z,8.60
2019-01-13T11:43:00.321Z,8.60
2019-01-13T11:45:29.280Z,8.60
2019-01-13T11:47:56.916Z,8.60
2019-01-13T11:50:25.869Z,8.60
2019-01-13T11:52:53.510Z,8.50
2019-01-13T11:57:14.058Z,8.50
2019-01-13T11:59:42.812Z,8.50
2019-01-13T12:02:10.556Z,8.50
2019-01-13T12:04:38.340Z,8.60
2019-01-13T12:07:06.192Z,8.60
2019-01-13T12:09:33.197Z,8.60
2019-01-13T12:12:00.972Z,8.50
2019-01-13T12:14:29.081Z,8.50
2019-01-13T12:16:57.527Z,8.60
2019-01-13T12:19:24.604Z,8.80
2019-01-13T12:21:51.988Z,8.90
2019-01-13T12:24:19.568Z,8.90
2019-01-13T12:26:46.841Z,8.90
2019-01-13T12:29:14.162Z,8.90
2019-01-13T12:31:41.899Z,8.90
2019-01-13T12:34:09.960Z,8.90
2019-01-13T12:36:37.308Z,8.90
2019-01-13T12:39:08.689Z,8.90
2019-01-13T12:41:37.965Z,9.00
2019-01-13T12:44:05.405Z,9.00
2019-01-13T12:46:33.292Z,9.20
2019-01-13T12:49:00.950Z,9.20
2019-01-13T12:51:31.414Z,9.10
2019-01-13T12:53:59.146Z,9.10
2019-01-13T12:56:27.108Z,9.20
2019-01-13T12:58:54.681Z,9.20
2019-01-13T13:01:22.803Z,9.30
2019-01-13T13:03:51.051Z,9.20
2019-01-13T13:06:19.141Z,9.30
2019-01-13T13:08:47.273Z,9.30
2019-01-13T13:11:14.428Z,9.30
2019-01-13T13:13:42.289Z,9.30
2019-01-13T13:16:09.670Z,9.40
2019-01-13T13:18:36.681Z,9.40
2019-01-13T13:21:04.294Z,9.40
2019-01-13T13:23:33.371Z,9.40
2019-01-13T13:26:03.068Z,9.40
2019-01-13T13:28:30.720Z,9.40
2019-01-13T13:30:58.272Z,9.40
2019-01-13T13:33:25.816Z,9.50
2019-01-13T13:35:53.629Z,9.50
2019-01-13T13:38:21.791Z,9.60
2019-01-13T13:40:49.269Z,9.50
2019-01-13T13:43:16.782Z,9.50
2019-01-13T13:45:46.292Z,9.50
2019-01-13T13:48:13.606Z,9.50
2019-01-13T13:50:41.417Z,9.50
2019-01-13T13:53:09.732Z,9.50
2019-01-13T13:55:37.140Z,9.50
2019-01-13T13:58:05.667Z,9.30
2019-01-13T14:00:35.541Z,9.30
2019-01-13T14:03:03.301Z,9.30
2019-01-13T14:05:30.988Z,9.30
2019-01-13T14:07:58.436Z,9.30
2019-01-13T14:10:28.952Z,9.30
2019-01-13T14:12:56.059Z,9.30
2019-01-13T14:15:23.569Z,9.30
2019-01-13T14:17:51.235Z,9.30
2019-01-13T14:20:18.726Z,9.40
2019-01-13T14:22:47.294Z,9.40
2019-01-13T14:25:15.300Z,9.40
2019-01-13T14:27:42.956Z,9.50
2019-01-13T14:30:14.689Z,9.50
2019-01-13T14:32:42.340Z,9.50
2019-01-13T14:35:09.948Z,9.40
2019-01-13T14:37:37.963Z,9.40
2019-01-13T14:40:08.585Z,9.40
2019-01-13T14:42:36.742Z,9.50
2019-01-13T14:45:06.903Z,9.50
2019-01-13T14:47:34.447Z,9.40
2019-01-13T14:50:01.610Z,9.40
2019-01-13T14:52:29.033Z,9.40
2019-01-13T14:54:56.455Z,9.30
2019-01-13T14:57:23.604Z,9.40
2019-01-13T14:59:51.226Z,9.40
2019-01-13T15:02:18.905Z,9.40
2019-01-13T15:04:46.545Z,9.40
2019-01-13T15:07:13.900Z,9.50
2019-01-13T15:09:41.828Z,9.60
2019-01-13T15:12:09.120Z,9.50
2019-01-13T15:14:37.041Z,9.50
2019-01-13T15:17:04.568Z,9.50
2019-01-13T15:19:32.401Z,9.50
2019-01-13T15:21:59.932Z,9.50
2019-01-13T15:24:27.444Z,9.50
2019-01-13T15:26:54.892Z,9.50
2019-01-13T15:29:22.865Z,9.40
2019-01-13T15:31:53.224Z,9.30
2019-01-13T15:34:20.556Z,9.30
2019-01-13T15:36:47.488Z,9.30
2019-01-13T15:39:16.209Z,9.30
2019-01-13T15:41:43.408Z,9.40
2019-01-13T15:44:11.874Z,9.40
2019-01-13T15:46:39.385Z,9.40
2019-01-13T15:49:07.040Z,9.50
2019-01-13T15:51:34.647Z,9.60
2019-01-13T15:54:03.813Z,9.60
2019-01-13T15:56:31.101Z,9.50
2019-01-13T15:58:58.537Z,9.50
2019-01-13T16:01:26.412Z,9.60
2019-01-13T16:03:55.105Z,9.60
2019-01-13T16:06:22.704Z,9.70
2019-01-13T16:08:50.144Z,9.60
2019-01-13T16:11:17.689Z,9.50
2019-01-13T16:13:44.832Z,9.50
2019-01-13T16:16:12.128Z,9.50
2019-01-13T16:18:39.235Z,9.50
2019-01-13T16:21:08.178Z,9.50
2019-01-13T16:23:36.452Z,9.60
2019-01-13T16:26:04.336Z,9.50
2019-01-13T16:28:31.525Z,9.50
2019-01-13T16:30:59.141Z,9.50
2019-01-13T16:33:27.251Z,9.50
2019-01-13T16:35:54.280Z,9.40
2019-01-13T16:38:21.488Z,9.50
2019-01-13T16:40:48.964Z,9.50
2019-01-13T16:43:16.300Z,9.50
2019-01-13T16:45:43.568Z,9.60
2019-01-13T16:48:11.534Z,9.60
2019-01-13T16:50:38.688Z,9.70
2019-01-13T16:53:06.429Z,9.80
2019-01-13T16:55:33.828Z,9.80
2019-01-13T16:58:01.052Z,9.80
2019-01-13T17:00:29.958Z,9.90
2019-01-13T17:02:57.835Z,10.00
2019-01-13T17:05:25.784Z,10.10
2019-01-13T17:07:53.261Z,10.20
2019-01-13T17:10:22.365Z,10.10
2019-01-13T17:12:49.910Z,10.20
2019-01-13T17:15:20.836Z,10.10
2019-01-13T17:17:48.208Z,10.10
2019-01-13T17:20:17.337Z,10.00
2019-01-13T17:22:44.633Z,10.00
2019-01-13T17:25:14.381Z,10.10
2019-01-13T17:27:42.116Z,10.00
2019-01-13T17:30:13.764Z,10.00
2019-01-13T17:32:41.380Z,9.90
2019-01-13T17:35:08.749Z,9.90
2019-01-13T17:37:35.880Z,9.90
2019-01-13T17:40:04.642Z,10.00
2019-01-13T17:42:32.401Z,9.90
2019-01-13T17:45:00.368Z,9.90
2019-01-13T17:47:27.901Z,9.90
2019-01-13T17:49:54.869Z,9.90
2019-01-13T17:52:22.431Z,9.90
2019-01-13T17:54:49.885Z,9.90
2019-01-13T17:57:17.454Z,9.90
2019-01-13T17:59:45.016Z,10.00
2019-01-13T18:02:13.015Z,10.00
2019-01-13T18:04:43.322Z,10.10
2019-01-13T18:07:09.796Z,10.10
2019-01-13T18:09:41.853Z,10.20
2019-01-13T18:12:09.320Z,10.10
2019-01-13T18:14:36.647Z,10.00
2019-01-13T18:17:06.536Z,10.00
2019-01-13T18:19:34.093Z,10.00
2019-01-13T18:22:01.524Z,10.00
2019-01-13T18:24:28.872Z,10.00
2019-01-13T18:26:56.340Z,10.10
2019-01-13T18:29:23.664Z,10.20
2019-01-13T18:31:51.380Z,10.30
2019-01-13T18:34:19.449Z,10.30
2019-01-13T18:36:46.781Z,10.30
2019-01-13T18:39:14.168Z,10.20
2019-01-13T18:41:41.520Z,10.20
2019-01-13T18:44:09.385Z,10.20
2019-01-13T18:46:36.848Z,10.10
2019-01-13T18:49:04.205Z,10.00
2019-01-13T18:51:31.562Z,10.00
2019-01-13T18:53:58.901Z,10.00
2019-01-13T18:56:28.520Z,9.90
2019-01-13T18:58:55.541Z,9.80
2019-01-13T19:01:22.764Z,9.90
2019-01-13T19:03:50.420Z,9.80
2019-01-13T19:06:18.368Z,9.80
2019-01-13T19:08:45.568Z,9.70
2019-01-13T19:11:22.561Z,9.70
2019-01-13T19:14:05.610Z,9.70
2019-01-13T19:16:38.796Z,9.60
2019-01-13T19:19:06.226Z,9.60
2019-01-13T19:21:33.829Z,9.70
2019-01-13T19:24:02.323Z,9.60
2019-01-13T19:26:29.520Z,9.50
2019-01-13T19:28:57.239Z,9.50
2019-01-13T19:31:24.868Z,9.50
2019-01-13T19:33:52.730Z,9.60
2019-01-13T19:36:19.833Z,9.50
2019-01-13T19:38:46.772Z,9.50
2019-01-13T19:41:14.432Z,9.50
2019-01-13T19:43:41.644Z,9.40
2019-01-13T19:46:10.076Z,9.50
2019-01-13T19:48:37.816Z,9.50
2019-01-13T19:51:04.941Z,9.50
2019-01-13T19:53:31.865Z,9.50
2019-01-13T19:55:59.316Z,9.30
2019-01-13T19:58:26.508Z,9.30
2019-01-13T20:00:54.341Z,9.30
2019-01-13T20:03:21.739Z,9.20
2019-01-13T20:05:49.324Z,9.20
2019-01-13T20:08:16.779Z,9.20
2019-01-13T20:10:44.606Z,9.20
2019-01-13T20:13:12.172Z,9.10
2019-01-13T20:15:39.154Z,9.10
2019-01-13T20:18:06.968Z,9.20
2019-01-13T20:20:34.144Z,9.10
2019-01-13T20:23:01.519Z,9.10
2019-01-13T20:25:29.132Z,9.00
2019-01-13T20:27:56.700Z,9.00
2019-01-13T20:30:27.837Z,9.00
2019-01-13T20:32:55.292Z,9.10
2019-01-13T20:35:22.641Z,9.10
2019-01-13T20:37:49.965Z,9.10
2019-01-13T20:40:17.773Z,9.00
2019-01-13T20:42:45.196Z,8.90
2019-01-13T20:45:16.093Z,8.90
2019-01-13T20:47:43.380Z,8.90
2019-01-13T20:50:12.465Z,8.70
2019-01-13T20:52:40.281Z,8.80
2019-01-13T20:55:08.277Z,8.80
2019-01-13T20:57:36.237Z,8.80
2019-01-13T21:00:06.189Z,8.70
2019-01-13T21:02:33.661Z,8.80
2019-01-13T21:05:01.033Z,8.80
2019-01-13T21:07:29.118Z,8.90
2019-01-13T21:09:56.288Z,8.80
2019-01-13T21:12:23.739Z,9.00
2019-01-13T21:14:51.680Z,9.00
2019-01-13T21:17:21.299Z,9.10
2019-01-13T21:19:50.457Z,9.10
2019-01-13T21:22:19.732Z,9.10
2019-01-13T21:24:47.569Z,9.20
2019-01-13T21:27:15.135Z,9.20
2019-01-13T21:29:42.580Z,9.20
2019-01-13T21:32:09.785Z,9.20
2019-01-13T21:34:36.960Z,9.30
2019-01-13T21:37:04.760Z,9.20
2019-01-13T21:39:32.272Z,9.20
2019-01-13T21:42:01.377Z,9.10
2019-01-13T21:44:28.562Z,9.10
2019-01-13T21:46:56.001Z,9.10
2019-01-13T21:49:24.356Z,9.10
2019-01-13T21:51:51.616Z,9.00
2019-01-13T21:54:19.316Z,8.80
2019-01-13T21:56:48.312Z,8.70
2019-01-13T21:59:15.565Z,8.70
2019-01-13T22:01:42.745Z,8.60
2019-01-13T22:04:10.220Z,8.50
2019-01-13T22:06:38.593Z,8.50
2019-01-13T22:09:10.369Z,8.30
2019-01-13T22:11:37.406Z,8.30
2019-01-13T22:14:05.320Z,8.40
2019-01-13T22:16:32.580Z,8.40
2019-01-13T22:19:00.185Z,8.40
2019-01-13T22:21:27.395Z,8.20
2019-01-13T22:23:54.949Z,8.00
2019-01-13T22:26:22.623Z,7.80
2019-01-13T22:28:50.113Z,7.80
2019-01-13T22:31:22.295Z,7.70
2019-01-13T22:33:47.656Z,7.60
2019-01-13T22:36:14.857Z,7.50
2019-01-13T22:38:42.020Z,7.30
2019-01-13T22:41:09.541Z,7.20
2019-01-13T22:43:37.076Z,7.20
2019-01-13T22:46:04.449Z,7.20
2019-01-13T22:48:33.092Z,7.10
2019-01-13T22:51:00.360Z,7.30
2019-01-13T22:53:29.906Z,7.20
2019-01-13T22:55:57.378Z,7.10
2019-01-13T22:58:24.424Z,7.00
2019-01-13T23:01:28.512Z,6.90
2019-01-13T23:04:00.148Z,6.80
2019-01-13T23:06:29.817Z,6.70
2019-01-13T23:08:56.883Z,6.70
2019-01-13T23:11:24.452Z,6.60
2019-01-13T23:13:52.346Z,6.70
2019-01-13T23:16:19.538Z,6.70
2019-01-13T23:18:46.553Z,6.80
2019-01-13T23:21:13.988Z,6.80
2019-01-13T23:23:40.932Z,6.70
2019-01-13T23:26:10.456Z,6.80
2019-01-13T23:28:38.120Z,6.80
2019-01-13T23:31:05.372Z,6.90
2019-01-13T23:33:32.716Z,7.00
2019-01-13T23:36:02.855Z,7.00
2019-01-13T23:38:28.808Z,6.90
2019-01-13T23:40:57.041Z,6.90
2019-01-13T23:43:24.481Z,7.00
2019-01-13T23:45:51.648Z,6.90
2019-01-13T23:48:19.488Z,6.90
2019-01-13T23:50:46.912Z,7.00
2019-01-13T23:53:14.197Z,7.00
2019-01-13T23:55:41.478Z,7.00
2019-01-13T23:58:08.868Z,7.10
